createdAt,value
2017-12-03T00:01:21.670Z,3.50
2017-12-03T00:03:49.692Z,3.40
2017-12-03T00:06:17.784Z,3.40
2017-12-03T00:08:46.666Z,3.20
2017-12-03T00:11:18.985Z,3.20
2017-12-03T00:13:47.056Z,3.20
2017-12-03T00:16:15.140Z,3.10
2017-12-03T00:18:43.210Z,3.00
2017-12-03T00:21:11.320Z,2.90
2017-12-03T00:23:40.321Z,2.80
2017-12-03T00:26:08.421Z,2.30
2017-12-03T00:28:36.488Z,2.60
2017-12-03T00:31:04.537Z,2.60
2017-12-03T00:33:33.360Z,2.50
2017-12-03T00:36:01.389Z,2.50
2017-12-03T00:38:29.441Z,2.60
2017-12-03T00:40:57.517Z,2.50
2017-12-03T00:43:25.560Z,2.50
2017-12-03T00:45:53.616Z,2.40
2017-12-03T00:48:21.650Z,2.40
2017-12-03T00:50:50.094Z,2.40
2017-12-03T00:53:18.789Z,2.30
2017-12-03T00:55:46.846Z,2.30
2017-12-03T00:58:14.979Z,2.30
2017-12-03T01:00:44.667Z,2.20
2017-12-03T01:03:13.531Z,2.10
2017-12-03T01:05:42.484Z,2.10
2017-12-03T01:08:11.726Z,1.90
2017-12-03T01:10:39.728Z,1.90
2017-12-03T01:13:08.295Z,1.90
2017-12-03T01:15:37.216Z,1.80
2017-12-03T01:18:05.228Z,1.80
2017-12-03T01:20:33.402Z,1.80
2017-12-03T01:23:01.419Z,1.70
2017-12-03T01:25:29.452Z,1.70
2017-12-03T01:27:57.530Z,1.60
2017-12-03T01:30:25.870Z,1.60
2017-12-03T01:32:54.797Z,1.60
2017-12-03T01:35:23.944Z,1.50
2017-12-03T01:37:52.381Z,1.50
2017-12-03T01:40:20.474Z,1.50
2017-12-03T01:42:49.552Z,1.40
2017-12-03T01:45:17.603Z,1.30
2017-12-03T01:47:45.644Z,1.30
2017-12-03T01:50:14.469Z,1.20
2017-12-03T01:52:43.561Z,1.20
2017-12-03T01:55:11.614Z,1.20
2017-12-03T01:57:40.422Z,1.20
2017-12-03T02:00:09.554Z,1.10
2017-12-03T02:02:37.590Z,1.10
2017-12-03T02:05:05.923Z,1.10
2017-12-03T02:07:34.758Z,1.10
2017-12-03T02:10:03.578Z,1.00
2017-12-03T02:12:31.718Z,1.00
2017-12-03T02:15:00.501Z,1.00
2017-12-03T02:17:29.435Z,1.00
2017-12-03T02:19:58.250Z,1.00
2017-12-03T02:22:26.280Z,1.00
2017-12-03T02:24:54.323Z,1.00
2017-12-03T02:27:23.112Z,1.00
2017-12-03T02:29:51.926Z,1.00
2017-12-03T02:32:19.957Z,0.90
2017-12-03T02:34:48.185Z,0.90
2017-12-03T02:37:16.229Z,0.90
2017-12-03T02:39:45.553Z,0.90
2017-12-03T02:42:13.628Z,0.90
2017-12-03T02:44:41.725Z,0.90
2017-12-03T02:47:09.790Z,0.90
2017-12-03T02:49:39.515Z,0.80
2017-12-03T02:52:07.540Z,0.80
2017-12-03T02:54:35.585Z,0.90
2017-12-03T02:57:04.371Z,0.90
2017-12-03T02:59:32.439Z,0.90
2017-12-03T03:02:00.461Z,0.90
2017-12-03T03:04:28.481Z,1.00
2017-12-03T03:06:56.535Z,1.10
2017-12-03T03:09:26.160Z,1.20
2017-12-03T03:11:54.204Z,1.20
2017-12-03T03:14:22.246Z,1.30
2017-12-03T03:16:50.594Z,1.40
2017-12-03T03:19:19.346Z,1.40
2017-12-03T03:21:47.380Z,1.50
2017-12-03T03:24:15.412Z,1.60
2017-12-03T03:26:43.464Z,1.60
2017-12-03T03:29:11.578Z,1.70
2017-12-03T03:31:39.593Z,1.70
2017-12-03T03:34:07.676Z,1.70
2017-12-03T03:36:35.705Z,1.70
2017-12-03T03:39:03.741Z,1.80
2017-12-03T03:41:31.834Z,1.80
2017-12-03T03:44:00.638Z,1.80
2017-12-03T03:46:29.450Z,1.80
2017-12-03T03:48:57.471Z,1.80
2017-12-03T03:51:26.159Z,1.80
2017-12-03T03:53:54.275Z,1.70
2017-12-03T03:56:22.317Z,1.70
2017-12-03T03:58:51.148Z,1.60
2017-12-03T04:01:19.257Z,1.60
2017-12-03T04:03:47.351Z,1.60
2017-12-03T04:06:15.394Z,1.60
2017-12-03T04:08:43.638Z,1.60
2017-12-03T04:11:11.714Z,1.60
2017-12-03T04:13:39.832Z,1.60
2017-12-03T04:16:07.893Z,1.60
2017-12-03T04:18:36.130Z,1.60
2017-12-03T04:21:04.208Z,1.60
2017-12-03T04:23:32.232Z,1.60
2017-12-03T04:26:00.541Z,1.60
2017-12-03T04:28:29.957Z,1.60
2017-12-03T04:30:57.983Z,1.60
2017-12-03T04:33:26.029Z,1.70
2017-12-03T04:35:54.599Z,1.70
2017-12-03T04:38:22.723Z,1.70
2017-12-03T04:40:50.753Z,1.70
2017-12-03T04:43:18.822Z,1.80
2017-12-03T04:45:46.855Z,1.80
2017-12-03T04:48:15.649Z,1.90
2017-12-03T04:50:44.429Z,1.90
2017-12-03T04:53:13.525Z,1.90
2017-12-03T04:55:42.332Z,2.00
2017-12-03T04:58:10.802Z,2.00
2017-12-03T05:00:39.723Z,2.00
2017-12-03T05:03:07.880Z,2.00
2017-12-03T05:05:35.960Z,2.00
2017-12-03T05:08:04.004Z,2.00
2017-12-03T05:10:32.027Z,2.10
2017-12-03T05:13:00.086Z,2.10
2017-12-03T05:15:28.097Z,2.20
2017-12-03T05:17:56.149Z,2.20
2017-12-03T05:20:24.173Z,2.20
2017-12-03T05:22:53.004Z,2.10
2017-12-03T05:25:21.070Z,2.10
2017-12-03T05:27:49.082Z,2.10
2017-12-03T05:30:17.206Z,2.10
2017-12-03T05:32:45.233Z,2.00
2017-12-03T05:35:13.284Z,2.00
2017-12-03T05:37:41.325Z,1.90
2017-12-03T05:40:09.349Z,1.90
2017-12-03T05:42:37.425Z,1.90
2017-12-03T05:45:05.456Z,1.80
2017-12-03T05:47:33.520Z,1.80
2017-12-03T05:50:01.538Z,1.80
2017-12-03T05:52:29.597Z,1.70
2017-12-03T05:54:57.605Z,1.70
2017-12-03T05:57:25.682Z,1.70
2017-12-03T05:59:54.401Z,1.60
2017-12-03T06:02:22.831Z,1.50
2017-12-03T06:04:50.881Z,1.50
2017-12-03T06:07:18.903Z,1.50
2017-12-03T06:09:46.963Z,1.50
2017-12-03T06:12:15.807Z,1.50
2017-12-03T06:14:43.859Z,1.50
2017-12-03T06:17:11.890Z,1.50
2017-12-03T06:19:40.908Z,1.60
2017-12-03T06:22:08.956Z,1.60
2017-12-03T06:24:38.928Z,1.60
2017-12-03T06:27:07.026Z,1.60
2017-12-03T06:29:35.045Z,1.70
2017-12-03T06:32:03.249Z,1.70
2017-12-03T06:34:31.372Z,1.70
2017-12-03T06:37:00.159Z,1.70
2017-12-03T06:39:29.377Z,1.70
2017-12-03T06:41:57.438Z,1.70
2017-12-03T06:44:26.264Z,1.80
2017-12-03T06:46:54.288Z,1.80
2017-12-03T06:49:23.351Z,1.80
2017-12-03T06:51:51.389Z,1.80
2017-12-03T06:54:20.193Z,1.80
2017-12-03T06:56:48.245Z,1.90
2017-12-03T06:59:16.336Z,1.90
2017-12-03T07:01:44.390Z,1.90
2017-12-03T07:04:12.446Z,1.90
2017-12-03T07:06:40.889Z,1.90
2017-12-03T07:09:09.165Z,2.00
2017-12-03T07:11:37.207Z,2.00
2017-12-03T07:14:05.259Z,1.90
2017-12-03T07:16:34.131Z,1.90
2017-12-03T07:19:03.211Z,1.80
2017-12-03T07:21:31.234Z,1.80
2017-12-03T07:23:59.448Z,1.70
2017-12-03T07:26:27.546Z,1.60
2017-12-03T07:28:55.583Z,1.60
2017-12-03T07:31:23.747Z,1.50
2017-12-03T07:33:51.805Z,1.50
2017-12-03T07:36:19.890Z,1.50
2017-12-03T07:38:47.931Z,1.40
2017-12-03T07:41:16.119Z,1.40
2017-12-03T07:43:44.222Z,1.40
2017-12-03T07:46:12.301Z,1.40
2017-12-03T07:48:40.360Z,1.50
2017-12-03T07:51:11.584Z,1.50
2017-12-03T07:53:39.681Z,1.50
2017-12-03T07:56:07.721Z,1.50
2017-12-03T07:58:36.605Z,1.60
2017-12-03T08:01:04.681Z,1.70
2017-12-03T08:03:32.721Z,1.70
2017-12-03T08:06:00.841Z,1.80
2017-12-03T08:08:28.880Z,1.80
2017-12-03T08:10:57.673Z,1.90
2017-12-03T08:13:26.551Z,1.90
2017-12-03T08:15:54.643Z,1.90
2017-12-03T08:18:23.539Z,1.90
2017-12-03T08:20:51.560Z,1.90
2017-12-03T08:23:19.609Z,2.00
2017-12-03T08:25:47.702Z,2.00
2017-12-03T08:28:15.770Z,2.00
2017-12-03T08:30:43.845Z,2.00
2017-12-03T08:33:11.919Z,2.00
2017-12-03T08:35:39.979Z,2.00
2017-12-03T08:38:08.148Z,2.00
2017-12-03T08:40:36.208Z,2.10
2017-12-03T08:43:04.898Z,2.10
2017-12-03T08:45:32.989Z,2.10
2017-12-03T08:48:02.355Z,2.10
2017-12-03T08:50:31.301Z,2.20
2017-12-03T08:52:59.315Z,2.20
2017-12-03T08:55:28.873Z,2.20
2017-12-03T08:57:56.966Z,2.20
2017-12-03T09:00:25.017Z,2.20
2017-12-03T09:02:53.123Z,2.20
2017-12-03T09:05:21.225Z,2.20
2017-12-03T09:07:49.318Z,2.20
2017-12-03T09:10:17.345Z,2.30
2017-12-03T09:12:46.129Z,2.30
2017-12-03T09:15:14.247Z,2.30
2017-12-03T09:17:42.269Z,2.30
2017-12-03T09:20:10.338Z,2.30
2017-12-03T09:22:38.465Z,2.30
2017-12-03T09:25:06.515Z,2.30
2017-12-03T09:27:36.160Z,2.30
2017-12-03T09:30:04.281Z,2.30
2017-12-03T09:32:32.358Z,2.30
2017-12-03T09:35:00.452Z,2.30
2017-12-03T09:37:29.312Z,2.30
2017-12-03T09:39:57.358Z,2.30
2017-12-03T09:42:25.438Z,2.30
2017-12-03T09:44:53.484Z,2.40
2017-12-03T09:47:21.771Z,2.40
2017-12-03T09:49:49.826Z,2.50
2017-12-03T09:52:17.921Z,2.50
2017-12-03T09:54:45.925Z,2.60
2017-12-03T09:57:14.026Z,2.60
2017-12-03T09:59:42.099Z,2.70
2017-12-03T10:02:10.210Z,2.70
2017-12-03T10:04:38.388Z,2.70
2017-12-03T10:07:06.517Z,2.80
2017-12-03T10:09:35.330Z,2.80
2017-12-03T10:12:03.532Z,2.80
2017-12-03T10:14:31.637Z,2.90
2017-12-03T10:16:59.707Z,2.90
2017-12-03T10:19:27.808Z,2.90
2017-12-03T10:21:56.669Z,3.00
2017-12-03T10:24:24.759Z,3.00
2017-12-03T10:26:53.599Z,3.10
2017-12-03T10:29:22.539Z,3.00
2017-12-03T10:31:50.648Z,3.10
2017-12-03T10:34:18.751Z,3.20
2017-12-03T10:36:46.797Z,3.20
2017-12-03T10:39:14.876Z,3.20
2017-12-03T10:41:42.956Z,3.20
2017-12-03T10:44:11.009Z,3.20
2017-12-03T10:46:39.104Z,3.20
2017-12-03T10:49:07.229Z,3.20
2017-12-03T10:51:36.041Z,3.20
2017-12-03T10:54:04.229Z,3.20
2017-12-03T10:56:32.301Z,3.20
2017-12-03T10:59:00.506Z,3.20
2017-12-03T11:01:28.540Z,3.20
2017-12-03T11:03:56.618Z,3.30
2017-12-03T11:06:24.691Z,3.20
2017-12-03T11:08:52.777Z,3.20
2017-12-03T11:11:21.052Z,3.30
2017-12-03T11:13:49.116Z,3.30
2017-12-03T11:16:17.263Z,3.20
2017-12-03T11:18:45.366Z,3.20
2017-12-03T11:21:13.416Z,3.30
2017-12-03T11:23:41.483Z,3.30
2017-12-03T11:26:10.073Z,3.30
2017-12-03T11:28:39.515Z,3.20
2017-12-03T11:31:07.573Z,3.20
2017-12-03T11:33:35.634Z,3.20
2017-12-03T11:36:03.763Z,3.40
2017-12-03T11:38:31.831Z,4.00
2017-12-03T11:40:59.917Z,4.70
2017-12-03T11:43:28.883Z,6.00
2017-12-03T11:45:57.019Z,5.90
2017-12-03T11:48:25.112Z,6.40
2017-12-03T11:50:53.149Z,6.90
2017-12-03T11:53:21.199Z,7.40
2017-12-03T11:55:49.262Z,7.60
2017-12-03T11:58:17.273Z,8.10
2017-12-03T12:00:45.318Z,8.70
2017-12-03T12:03:13.355Z,9.10
2017-12-03T12:05:41.465Z,9.60
2017-12-03T12:08:09.505Z,10.30
2017-12-03T12:10:37.564Z,11.10
2017-12-03T12:13:05.595Z,11.90
2017-12-03T12:15:34.504Z,13.40
2017-12-03T12:18:03.313Z,14.10
2017-12-03T12:20:31.368Z,14.10
2017-12-03T12:23:00.365Z,14.90
2017-12-03T12:25:28.454Z,15.80
2017-12-03T12:27:56.477Z,16.60
2017-12-03T12:30:25.317Z,17.30
2017-12-03T12:32:53.337Z,17.30
2017-12-03T12:35:22.174Z,17.20
2017-12-03T12:37:50.249Z,17.20
2017-12-03T12:40:18.883Z,17.50
2017-12-03T12:42:47.705Z,18.40
2017-12-03T12:45:15.774Z,18.40
2017-12-03T12:47:44.068Z,18.60
2017-12-03T12:50:12.376Z,18.90
2017-12-03T12:52:41.558Z,17.00
2017-12-03T12:55:10.689Z,17.00
2017-12-03T12:57:39.002Z,15.80
2017-12-03T13:00:07.386Z,15.30
2017-12-03T13:02:35.663Z,15.10
2017-12-03T13:05:03.996Z,15.10
2017-12-03T13:07:32.269Z,14.80
2017-12-03T13:10:01.348Z,13.50
2017-12-03T13:12:29.700Z,13.40
2017-12-03T13:14:58.011Z,12.50
2017-12-03T13:17:27.094Z,10.80
2017-12-03T13:19:57.542Z,10.70
2017-12-03T13:22:26.605Z,9.50
2017-12-03T13:24:54.928Z,9.50
2017-12-03T13:27:23.965Z,8.60
2017-12-03T13:29:52.319Z,8.60
2017-12-03T13:32:20.591Z,8.20
2017-12-03T13:34:48.886Z,7.90
2017-12-03T13:37:17.210Z,7.50
2017-12-03T13:39:45.522Z,7.20
2017-12-03T13:42:13.835Z,6.90
2017-12-03T13:44:42.252Z,6.70
2017-12-03T13:47:11.342Z,6.50
2017-12-03T13:49:39.627Z,6.40
2017-12-03T13:52:07.935Z,6.20
2017-12-03T13:54:36.219Z,6.10
2017-12-03T13:57:04.557Z,6.00
2017-12-03T13:59:32.873Z,5.80
2017-12-03T14:02:01.998Z,5.70
2017-12-03T14:04:30.262Z,5.60
2017-12-03T14:06:59.223Z,5.50
2017-12-03T14:09:27.527Z,5.50
2017-12-03T14:11:55.854Z,5.40
2017-12-03T14:14:24.127Z,5.30
2017-12-03T14:16:52.458Z,5.20
2017-12-03T14:19:20.726Z,5.10
2017-12-03T14:21:49.797Z,4.80
2017-12-03T14:24:18.088Z,4.80
2017-12-03T14:26:47.193Z,4.70
2017-12-03T14:29:15.493Z,4.60
2017-12-03T14:31:43.800Z,4.60
2017-12-03T14:34:12.167Z,4.50
2017-12-03T14:36:40.454Z,4.50
2017-12-03T14:39:08.764Z,4.50
2017-12-03T14:41:37.163Z,4.50
2017-12-03T14:44:05.396Z,4.50
2017-12-03T14:46:33.785Z,4.50
2017-12-03T14:49:02.245Z,4.60
2017-12-03T14:51:32.078Z,4.60
2017-12-03T14:54:00.351Z,4.60
2017-12-03T14:56:28.623Z,4.60
2017-12-03T14:58:56.930Z,4.70
2017-12-03T15:01:26.024Z,4.70
2017-12-03T15:03:54.308Z,4.70
2017-12-03T15:06:23.361Z,4.60
2017-12-03T15:08:51.659Z,4.60
2017-12-03T15:11:19.930Z,4.70
2017-12-03T15:13:48.234Z,4.60
2017-12-03T15:16:16.745Z,4.60
2017-12-03T15:18:45.767Z,4.60
2017-12-03T15:21:14.110Z,4.60
2017-12-03T15:23:43.345Z,4.60
2017-12-03T15:26:11.666Z,4.60
2017-12-03T15:28:39.980Z,4.50
2017-12-03T15:31:09.195Z,4.50
2017-12-03T15:33:38.435Z,4.50
2017-12-03T15:36:06.825Z,4.50
2017-12-03T15:38:35.108Z,4.50
2017-12-03T15:41:04.177Z,4.50
2017-12-03T15:43:32.525Z,4.50
2017-12-03T15:46:00.792Z,4.50
2017-12-03T15:48:29.110Z,4.50
2017-12-03T15:50:57.388Z,4.50
2017-12-03T15:53:25.750Z,4.50
2017-12-03T15:55:54.007Z,4.50
2017-12-03T15:58:22.315Z,4.50
2017-12-03T16:00:50.583Z,4.50
2017-12-03T16:03:18.880Z,4.50
2017-12-03T16:05:47.210Z,4.60
2017-12-03T16:08:16.266Z,4.60
2017-12-03T16:10:44.575Z,4.60
2017-12-03T16:13:13.621Z,4.60
2017-12-03T16:15:41.967Z,4.60
2017-12-03T16:18:10.237Z,4.60
2017-12-03T16:20:38.519Z,4.60
2017-12-03T16:23:06.843Z,4.70
2017-12-03T16:25:35.120Z,4.70
2017-12-03T16:28:03.420Z,4.70
2017-12-03T16:30:31.724Z,4.70
2017-12-03T16:33:00.036Z,4.80
2017-12-03T16:35:28.317Z,4.80
2017-12-03T16:37:56.584Z,4.80
2017-12-03T16:40:24.905Z,4.70
2017-12-03T16:42:53.174Z,4.70
2017-12-03T16:45:21.657Z,4.60
2017-12-03T16:47:49.953Z,4.60
2017-12-03T16:50:18.624Z,4.60
2017-12-03T16:52:46.945Z,4.60
2017-12-03T16:55:15.238Z,4.60
2017-12-03T16:57:43.536Z,4.60
2017-12-03T17:00:12.825Z,4.60
2017-12-03T17:02:41.150Z,4.60
2017-12-03T17:05:09.434Z,4.60
2017-12-03T17:07:38.538Z,4.60
2017-12-03T17:10:07.583Z,4.70
2017-12-03T17:12:35.882Z,4.60
2017-12-03T17:15:04.189Z,4.70
2017-12-03T17:17:33.365Z,4.70
2017-12-03T17:20:01.690Z,4.70
2017-12-03T17:22:29.990Z,4.60
2017-12-03T17:24:58.715Z,4.60
2017-12-03T17:27:27.005Z,4.60
2017-12-03T17:29:55.295Z,4.50
2017-12-03T17:32:23.598Z,4.60
2017-12-03T17:34:52.046Z,4.50
2017-12-03T17:37:21.261Z,4.50
2017-12-03T17:39:50.342Z,4.50
2017-12-03T17:42:19.620Z,4.50
2017-12-03T17:44:47.908Z,4.50
2017-12-03T17:47:16.590Z,4.50
2017-12-03T17:49:46.111Z,4.50
2017-12-03T17:52:14.644Z,4.50
2017-12-03T17:54:42.996Z,4.50
2017-12-03T17:57:11.317Z,4.50
2017-12-03T17:59:40.408Z,4.40
2017-12-03T18:02:15.672Z,4.40
2017-12-03T18:04:44.400Z,4.40
2017-12-03T18:07:12.694Z,4.40
2017-12-03T18:09:40.991Z,4.40
2017-12-03T18:12:09.512Z,4.30
2017-12-03T18:14:38.569Z,4.40
2017-12-03T18:17:06.934Z,4.40
2017-12-03T18:19:36.025Z,4.40
2017-12-03T18:22:04.405Z,4.30
2017-12-03T18:24:33.770Z,4.30
2017-12-03T18:27:02.295Z,4.30
2017-12-03T18:29:30.738Z,4.30
2017-12-03T18:31:59.001Z,4.30
2017-12-03T18:34:27.713Z,4.30
2017-12-03T18:36:56.091Z,4.30
2017-12-03T18:39:25.180Z,4.30
2017-12-03T18:41:54.306Z,4.30
2017-12-03T18:44:22.650Z,4.20
2017-12-03T18:46:51.017Z,4.30
2017-12-03T18:49:19.331Z,4.20
2017-12-03T18:51:48.030Z,4.30
2017-12-03T18:54:16.423Z,4.20
2017-12-03T18:56:44.702Z,4.20
2017-12-03T18:59:13.069Z,4.20
2017-12-03T19:01:41.436Z,4.20
2017-12-03T19:04:09.768Z,4.20
2017-12-03T19:06:38.059Z,4.10
2017-12-03T19:09:06.638Z,4.10
2017-12-03T19:11:35.913Z,4.00
2017-12-03T19:14:04.240Z,4.00
2017-12-03T19:16:33.330Z,4.00
2017-12-03T19:19:03.480Z,3.90
2017-12-03T19:21:31.831Z,3.60
2017-12-03T19:24:00.872Z,3.90
2017-12-03T19:26:29.326Z,3.90
2017-12-03T19:28:57.737Z,3.80
2017-12-03T19:31:26.597Z,3.80
2017-12-03T19:33:55.730Z,3.60
2017-12-03T19:36:24.295Z,3.60
2017-12-03T19:38:52.763Z,3.60
2017-12-03T19:41:21.200Z,3.60
2017-12-03T19:43:51.388Z,3.40
2017-12-03T19:46:20.052Z,3.40
2017-12-03T19:48:48.434Z,3.40
2017-12-03T19:51:16.761Z,3.30
2017-12-03T19:53:45.938Z,3.30
2017-12-03T19:56:14.430Z,3.30
2017-12-03T19:58:43.654Z,3.40
2017-12-03T20:01:12.856Z,3.40
2017-12-03T20:03:41.271Z,3.40
2017-12-03T20:06:10.700Z,3.40
2017-12-03T20:08:39.095Z,3.40
2017-12-03T20:11:07.421Z,3.40
2017-12-03T20:13:35.910Z,3.30
2017-12-03T20:16:04.653Z,3.30
2017-12-03T20:18:33.002Z,3.30
2017-12-03T20:21:01.488Z,3.30
2017-12-03T20:23:30.248Z,3.20
2017-12-03T20:25:59.402Z,3.30
2017-12-03T20:28:27.749Z,3.20
2017-12-03T20:30:56.279Z,3.30
2017-12-03T20:33:24.904Z,3.30
2017-12-03T20:35:53.477Z,3.30
2017-12-03T20:38:22.159Z,3.30
2017-12-03T20:40:50.438Z,3.40
2017-12-03T20:43:18.911Z,3.40
2017-12-03T20:45:47.283Z,3.40
2017-12-03T20:48:15.701Z,3.40
2017-12-03T20:50:44.133Z,3.40
2017-12-03T20:53:12.810Z,3.40
2017-12-03T20:55:41.247Z,3.50
2017-12-03T20:58:09.647Z,3.50
2017-12-03T21:00:38.066Z,3.50
2017-12-03T21:03:06.467Z,3.60
2017-12-03T21:05:36.093Z,3.60
2017-12-03T21:08:04.460Z,3.60
2017-12-03T21:10:33.082Z,3.60
2017-12-03T21:13:01.451Z,3.60
2017-12-03T21:15:29.779Z,3.60
2017-12-03T21:17:58.299Z,3.60
2017-12-03T21:20:26.762Z,3.60
2017-12-03T21:22:55.126Z,3.60
2017-12-03T21:25:23.503Z,3.60
2017-12-03T21:27:52.155Z,3.60
2017-12-03T21:30:20.720Z,3.60
2017-12-03T21:32:49.020Z,3.60
2017-12-03T21:35:17.303Z,3.70
2017-12-03T21:37:46.567Z,3.70
2017-12-03T21:40:15.452Z,3.70
2017-12-03T21:42:44.695Z,3.60
2017-12-03T21:45:13.407Z,3.60
2017-12-03T21:47:41.745Z,3.60
2017-12-03T21:50:10.897Z,3.60
2017-12-03T21:52:39.311Z,3.60
2017-12-03T21:55:08.374Z,3.50
2017-12-03T21:57:36.683Z,3.50
2017-12-03T22:00:05.458Z,3.50
2017-12-03T22:02:34.135Z,3.50
2017-12-03T22:05:02.442Z,3.50
2017-12-03T22:07:30.722Z,3.50
2017-12-03T22:09:59.075Z,3.40
2017-12-03T22:12:28.119Z,3.40
2017-12-03T22:14:57.483Z,3.40
2017-12-03T22:17:26.516Z,3.40
2017-12-03T22:19:54.885Z,3.40
2017-12-03T22:22:23.224Z,3.40
2017-12-03T22:24:52.282Z,3.50
2017-12-03T22:27:20.610Z,3.50
2017-12-03T22:29:49.650Z,3.60
2017-12-03T22:32:18.291Z,3.60
2017-12-03T22:34:46.828Z,3.60
2017-12-03T22:37:15.166Z,3.60
2017-12-03T22:39:43.470Z,3.70
2017-12-03T22:42:11.744Z,3.70
2017-12-03T22:44:40.075Z,3.60
2017-12-03T22:47:08.363Z,3.60
2017-12-03T22:49:37.751Z,3.50
2017-12-03T22:52:06.276Z,3.50
2017-12-03T22:54:34.662Z,3.50
2017-12-03T22:57:02.947Z,3.40
2017-12-03T22:59:31.225Z,3.40
2017-12-03T23:01:59.557Z,3.40
2017-12-03T23:04:30.544Z,3.40
2017-12-03T23:06:58.934Z,3.40
2017-12-03T23:09:27.222Z,3.40
2017-12-03T23:11:55.798Z,3.40
2017-12-03T23:14:24.050Z,3.40
2017-12-03T23:16:52.351Z,3.40
2017-12-03T23:19:20.638Z,3.40
2017-12-03T23:21:48.932Z,3.50
2017-12-03T23:24:17.220Z,3.50
2017-12-03T23:26:47.157Z,3.60
2017-12-03T23:29:16.538Z,3.60
2017-12-03T23:31:44.809Z,3.60
2017-12-03T23:34:13.159Z,3.60
2017-12-03T23:36:41.457Z,3.70
2017-12-03T23:39:09.791Z,3.70
2017-12-03T23:41:38.114Z,3.70
2017-12-03T23:44:06.404Z,3.80
2017-12-03T23:46:34.983Z,3.80
2017-12-03T23:49:03.261Z,3.90
2017-12-03T23:51:31.537Z,3.90
2017-12-03T23:53:59.857Z,3.90
2017-12-03T23:56:28.141Z,3.90
2017-12-03T23:58:56.452Z,3.90
